sensor_id;sensor_type;location;lat;lon;timestamp;P1;durP1;ratioP1;P2;durP2;ratioP2
33826;SDS011;20128;45.582;5.298;2024-02-23T00:01:28;6.10;;;2.10;;
33826;SDS011;20128;45.582;5.298;2024-02-23T00:03:54;8.15;;;3.22;;
33826;SDS011;20128;45.582;5.298;2024-02-23T00:06:20;2.60;;;1.98;;
33826;SDS011;20128;45.582;5.298;2024-02-23T00:08:47;3.22;;;2.08;;
33826;SDS011;20128;45.582;5.298;2024-02-23T00:11:13;4.25;;;2.50;;
33826;SDS011;20128;45.582;5.298;2024-02-23T00:13:39;4.20;;;3.13;;
33826;SDS011;20128;45.582;5.298;2024-02-23T00:16:04;12.25;;;7.47;;
33826;SDS011;20128;45.582;5.298;2024-02-23T00:18:30;11.77;;;5.65;;
33826;SDS011;20128;45.582;5.298;2024-02-23T00:20:56;19.77;;;9.68;;
33826;SDS011;20128;45.582;5.298;2024-02-23T00:23:21;15.25;;;8.02;;
33826;SDS011;20128;45.582;5.298;2024-02-23T00:25:47;10.75;;;4.30;;
33826;SDS011;20128;45.582;5.298;2024-02-23T00:28:13;10.13;;;4.90;;
33826;SDS011;20128;45.582;5.298;2024-02-23T00:30:38;12.50;;;4.22;;
33826;SDS011;20128;45.582;5.298;2024-02-23T00:33:04;3.88;;;1.65;;
33826;SDS011;20128;45.582;5.298;2024-02-23T00:35:30;4.63;;;1.20;;
33826;SDS011;20128;45.582;5.298;2024-02-23T00:37:56;3.42;;;1.77;;
33826;SDS011;20128;45.582;5.298;2024-02-23T00:40:21;5.53;;;1.02;;
33826;SDS011;20128;45.582;5.298;2024-02-23T00:42:48;2.97;;;0.88;;
33826;SDS011;20128;45.582;5.298;2024-02-23T00:45:14;2.33;;;0.73;;
33826;SDS011;20128;45.582;5.298;2024-02-23T00:47:40;3.00;;;1.10;;
33826;SDS011;20128;45.582;5.298;2024-02-23T00:50:05;5.57;;;1.10;;
33826;SDS011;20128;45.582;5.298;2024-02-23T00:52:31;10.65;;;4.35;;
33826;SDS011;20128;45.582;5.298;2024-02-23T00:54:57;10.82;;;3.83;;
33826;SDS011;20128;45.582;5.298;2024-02-23T00:57:24;18.40;;;5.35;;
33826;SDS011;20128;45.582;5.298;2024-02-23T00:59:54;45.33;;;15.70;;
33826;SDS011;20128;45.582;5.298;2024-02-23T01:02:23;12.90;;;4.63;;
33826;SDS011;20128;45.582;5.298;2024-02-23T01:04:49;5.90;;;2.15;;
33826;SDS011;20128;45.582;5.298;2024-02-23T01:07:14;6.50;;;1.90;;
33826;SDS011;20128;45.582;5.298;2024-02-23T01:09:40;9.07;;;1.80;;
33826;SDS011;20128;45.582;5.298;2024-02-23T01:12:06;4.47;;;1.63;;
33826;SDS011;20128;45.582;5.298;2024-02-23T01:14:31;13.82;;;3.72;;
33826;SDS011;20128;45.582;5.298;2024-02-23T01:16:57;6.25;;;1.80;;
33826;SDS011;20128;45.582;5.298;2024-02-23T01:19:22;5.93;;;1.88;;
33826;SDS011;20128;45.582;5.298;2024-02-23T01:21:48;4.72;;;2.05;;
33826;SDS011;20128;45.582;5.298;2024-02-23T01:24:21;7.70;;;1.63;;
33826;SDS011;20128;45.582;5.298;2024-02-23T01:26:47;8.90;;;1.45;;
33826;SDS011;20128;45.582;5.298;2024-02-23T01:29:12;5.22;;;1.90;;
33826;SDS011;20128;45.582;5.298;2024-02-23T01:31:38;7.45;;;1.70;;
33826;SDS011;20128;45.582;5.298;2024-02-23T01:34:04;11.00;;;1.30;;
33826;SDS011;20128;45.582;5.298;2024-02-23T01:36:29;6.53;;;1.80;;
33826;SDS011;20128;45.582;5.298;2024-02-23T01:38:55;6.72;;;1.63;;
33826;SDS011;20128;45.582;5.298;2024-02-23T01:41:20;8.27;;;1.55;;
33826;SDS011;20128;45.582;5.298;2024-02-23T01:43:46;8.77;;;1.58;;
33826;SDS011;20128;45.582;5.298;2024-02-23T01:46:12;9.98;;;1.40;;
33826;SDS011;20128;45.582;5.298;2024-02-23T01:48:38;10.48;;;1.92;;
33826;SDS011;20128;45.582;5.298;2024-02-23T01:51:04;9.00;;;1.48;;
33826;SDS011;20128;45.582;5.298;2024-02-23T01:53:30;5.22;;;1.85;;
33826;SDS011;20128;45.582;5.298;2024-02-23T01:55:56;10.43;;;1.63;;
33826;SDS011;20128;45.582;5.298;2024-02-23T01:58:22;5.13;;;1.20;;
33826;SDS011;20128;45.582;5.298;2024-02-23T02:00:49;5.72;;;1.20;;
33826;SDS011;20128;45.582;5.298;2024-02-23T02:03:14;8.30;;;1.20;;
33826;SDS011;20128;45.582;5.298;2024-02-23T02:05:40;6.38;;;1.40;;
33826;SDS011;20128;45.582;5.298;2024-02-23T02:08:06;9.60;;;1.33;;
33826;SDS011;20128;45.582;5.298;2024-02-23T02:10:32;5.80;;;1.10;;
33826;SDS011;20128;45.582;5.298;2024-02-23T02:13:04;6.20;;;1.50;;
33826;SDS011;20128;45.582;5.298;2024-02-23T02:15:30;8.80;;;1.60;;
33826;SDS011;20128;45.582;5.298;2024-02-23T02:17:56;8.02;;;2.17;;
33826;SDS011;20128;45.582;5.298;2024-02-23T02:20:23;6.13;;;1.75;;
33826;SDS011;20128;45.582;5.298;2024-02-23T02:22:51;10.20;;;1.75;;
33826;SDS011;20128;45.582;5.298;2024-02-23T02:25:17;7.50;;;1.80;;
33826;SDS011;20128;45.582;5.298;2024-02-23T02:27:43;6.30;;;1.65;;
33826;SDS011;20128;45.582;5.298;2024-02-23T02:30:10;5.10;;;1.08;;
33826;SDS011;20128;45.582;5.298;2024-02-23T02:32:37;6.68;;;1.30;;
33826;SDS011;20128;45.582;5.298;2024-02-23T02:35:03;10.52;;;1.45;;
33826;SDS011;20128;45.582;5.298;2024-02-23T02:37:29;3.80;;;0.68;;
33826;SDS011;20128;45.582;5.298;2024-02-23T02:39:54;3.50;;;0.80;;
33826;SDS011;20128;45.582;5.298;2024-02-23T02:42:20;7.03;;;1.65;;
33826;SDS011;20128;45.582;5.298;2024-02-23T02:44:45;4.93;;;1.10;;
33826;SDS011;20128;45.582;5.298;2024-02-23T02:47:11;5.78;;;1.10;;
33826;SDS011;20128;45.582;5.298;2024-02-23T02:49:37;5.82;;;0.90;;
33826;SDS011;20128;45.582;5.298;2024-02-23T02:52:04;5.18;;;1.10;;
33826;SDS011;20128;45.582;5.298;2024-02-23T02:54:29;6.47;;;0.93;;
33826;SDS011;20128;45.582;5.298;2024-02-23T02:56:55;9.70;;;1.20;;
33826;SDS011;20128;45.582;5.298;2024-02-23T02:59:21;6.47;;;2.22;;
33826;SDS011;20128;45.582;5.298;2024-02-23T03:01:48;7.78;;;1.52;;
33826;SDS011;20128;45.582;5.298;2024-02-23T03:04:13;7.65;;;0.95;;
33826;SDS011;20128;45.582;5.298;2024-02-23T03:06:39;4.95;;;1.10;;
33826;SDS011;20128;45.582;5.298;2024-02-23T03:09:05;4.13;;;0.98;;
33826;SDS011;20128;45.582;5.298;2024-02-23T03:11:32;6.07;;;1.23;;
33826;SDS011;20128;45.582;5.298;2024-02-23T03:13:57;4.82;;;1.23;;
33826;SDS011;20128;45.582;5.298;2024-02-23T03:16:23;6.55;;;1.35;;
33826;SDS011;20128;45.582;5.298;2024-02-23T03:18:51;7.57;;;1.80;;
33826;SDS011;20128;45.582;5.298;2024-02-23T03:21:17;11.07;;;2.20;;
33826;SDS011;20128;45.582;5.298;2024-02-23T03:23:42;6.88;;;1.65;;
33826;SDS011;20128;45.582;5.298;2024-02-23T03:26:08;6.60;;;1.45;;
33826;SDS011;20128;45.582;5.298;2024-02-23T03:28:33;8.57;;;1.08;;
33826;SDS011;20128;45.582;5.298;2024-02-23T03:31:00;3.95;;;1.13;;
33826;SDS011;20128;45.582;5.298;2024-02-23T03:33:26;6.68;;;1.50;;
33826;SDS011;20128;45.582;5.298;2024-02-23T03:35:51;8.32;;;1.80;;
33826;SDS011;20128;45.582;5.298;2024-02-23T03:38:17;6.43;;;1.42;;
33826;SDS011;20128;45.582;5.298;2024-02-23T03:40:43;8.68;;;3.35;;
33826;SDS011;20128;45.582;5.298;2024-02-23T03:43:08;10.27;;;3.65;;
33826;SDS011;20128;45.582;5.298;2024-02-23T03:45:34;6.82;;;2.00;;
33826;SDS011;20128;45.582;5.298;2024-02-23T03:48:00;5.05;;;1.45;;
33826;SDS011;20128;45.582;5.298;2024-02-23T03:50:28;7.10;;;1.83;;
33826;SDS011;20128;45.582;5.298;2024-02-23T03:52:54;5.28;;;1.35;;
33826;SDS011;20128;45.582;5.298;2024-02-23T03:55:20;12.45;;;1.92;;
33826;SDS011;20128;45.582;5.298;2024-02-23T03:57:47;5.60;;;1.17;;
33826;SDS011;20128;45.582;5.298;2024-02-23T04:00:13;9.73;;;1.10;;
33826;SDS011;20128;45.582;5.298;2024-02-23T04:02:39;5.90;;;1.17;;
33826;SDS011;20128;45.582;5.298;2024-02-23T04:05:05;4.10;;;1.13;;
33826;SDS011;20128;45.582;5.298;2024-02-23T04:07:31;3.40;;;1.50;;
33826;SDS011;20128;45.582;5.298;2024-02-23T04:09:57;9.02;;;1.77;;
33826;SDS011;20128;45.582;5.298;2024-02-23T04:12:22;5.70;;;1.55;;
33826;SDS011;20128;45.582;5.298;2024-02-23T04:14:48;5.50;;;1.23;;
33826;SDS011;20128;45.582;5.298;2024-02-23T04:17:14;4.47;;;1.30;;
33826;SDS011;20128;45.582;5.298;2024-02-23T04:19:40;7.55;;;1.30;;
33826;SDS011;20128;45.582;5.298;2024-02-23T04:22:07;8.82;;;2.00;;
33826;SDS011;20128;45.582;5.298;2024-02-23T04:24:36;8.35;;;1.73;;
33826;SDS011;20128;45.582;5.298;2024-02-23T04:27:05;7.47;;;1.95;;
33826;SDS011;20128;45.582;5.298;2024-02-23T04:29:31;3.88;;;1.70;;
33826;SDS011;20128;45.582;5.298;2024-02-23T04:31:59;6.30;;;1.85;;
33826;SDS011;20128;45.582;5.298;2024-02-23T04:34:25;8.27;;;1.48;;
33826;SDS011;20128;45.582;5.298;2024-02-23T04:36:50;4.47;;;1.40;;
33826;SDS011;20128;45.582;5.298;2024-02-23T04:39:16;7.43;;;1.45;;
33826;SDS011;20128;45.582;5.298;2024-02-23T04:41:42;3.60;;;1.23;;
33826;SDS011;20128;45.582;5.298;2024-02-23T04:44:08;3.97;;;1.48;;
33826;SDS011;20128;45.582;5.298;2024-02-23T04:46:33;4.13;;;1.25;;
33826;SDS011;20128;45.582;5.298;2024-02-23T04:48:59;8.13;;;1.40;;
33826;SDS011;20128;45.582;5.298;2024-02-23T04:51:25;8.05;;;2.92;;
33826;SDS011;20128;45.582;5.298;2024-02-23T04:53:52;10.73;;;3.15;;
33826;SDS011;20128;45.582;5.298;2024-02-23T04:56:17;10.52;;;1.88;;
33826;SDS011;20128;45.582;5.298;2024-02-23T04:58:43;5.40;;;1.30;;
33826;SDS011;20128;45.582;5.298;2024-02-23T05:01:09;5.43;;;1.25;;
33826;SDS011;20128;45.582;5.298;2024-02-23T05:03:36;6.82;;;1.08;;
33826;SDS011;20128;45.582;5.298;2024-02-23T05:06:04;9.20;;;2.10;;
33826;SDS011;20128;45.582;5.298;2024-02-23T05:08:30;5.32;;;1.70;;
33826;SDS011;20128;45.582;5.298;2024-02-23T05:10:56;9.95;;;2.13;;
33826;SDS011;20128;45.582;5.298;2024-02-23T05:13:22;11.18;;;3.83;;
33826;SDS011;20128;45.582;5.298;2024-02-23T05:15:48;13.20;;;3.85;;
33826;SDS011;20128;45.582;5.298;2024-02-23T05:18:14;8.30;;;2.40;;
33826;SDS011;20128;45.582;5.298;2024-02-23T05:20:40;5.53;;;1.40;;
33826;SDS011;20128;45.582;5.298;2024-02-23T05:23:05;5.55;;;1.25;;
33826;SDS011;20128;45.582;5.298;2024-02-23T05:25:31;5.15;;;1.83;;
33826;SDS011;20128;45.582;5.298;2024-02-23T05:27:56;11.13;;;2.45;;
33826;SDS011;20128;45.582;5.298;2024-02-23T05:30:22;9.52;;;3.42;;
33826;SDS011;20128;45.582;5.298;2024-02-23T05:32:48;6.60;;;2.85;;
33826;SDS011;20128;45.582;5.298;2024-02-23T05:35:14;6.72;;;2.20;;
33826;SDS011;20128;45.582;5.298;2024-02-23T05:37:40;7.75;;;1.92;;
33826;SDS011;20128;45.582;5.298;2024-02-23T05:40:07;11.93;;;4.03;;
33826;SDS011;20128;45.582;5.298;2024-02-23T05:42:38;12.73;;;4.32;;
33826;SDS011;20128;45.582;5.298;2024-02-23T05:45:04;7.57;;;3.88;;
33826;SDS011;20128;45.582;5.298;2024-02-23T05:47:34;6.70;;;2.05;;
33826;SDS011;20128;45.582;5.298;2024-02-23T05:50:01;9.25;;;2.10;;
33826;SDS011;20128;45.582;5.298;2024-02-23T05:52:31;7.28;;;1.85;;
33826;SDS011;20128;45.582;5.298;2024-02-23T05:54:57;5.97;;;1.63;;
33826;SDS011;20128;45.582;5.298;2024-02-23T05:57:25;9.57;;;2.00;;
33826;SDS011;20128;45.582;5.298;2024-02-23T05:59:51;4.68;;;1.63;;
33826;SDS011;20128;45.582;5.298;2024-02-23T06:02:17;11.35;;;1.75;;
33826;SDS011;20128;45.582;5.298;2024-02-23T06:04:42;4.40;;;1.55;;
33826;SDS011;20128;45.582;5.298;2024-02-23T06:07:08;9.73;;;1.95;;
33826;SDS011;20128;45.582;5.298;2024-02-23T06:09:34;14.23;;;1.90;;
33826;SDS011;20128;45.582;5.298;2024-02-23T06:12:00;6.20;;;1.63;;
33826;SDS011;20128;45.582;5.298;2024-02-23T06:14:25;7.88;;;1.55;;
33826;SDS011;20128;45.582;5.298;2024-02-23T06:16:51;7.75;;;1.30;;
33826;SDS011;20128;45.582;5.298;2024-02-23T06:19:17;4.50;;;1.42;;
33826;SDS011;20128;45.582;5.298;2024-02-23T06:21:42;6.93;;;1.52;;
33826;SDS011;20128;45.582;5.298;2024-02-23T06:24:08;8.35;;;1.92;;
33826;SDS011;20128;45.582;5.298;2024-02-23T06:26:34;8.23;;;1.90;;
33826;SDS011;20128;45.582;5.298;2024-02-23T06:29:00;4.18;;;1.58;;
33826;SDS011;20128;45.582;5.298;2024-02-23T06:31:25;6.13;;;1.98;;
33826;SDS011;20128;45.582;5.298;2024-02-23T06:33:51;7.13;;;1.65;;
33826;SDS011;20128;45.582;5.298;2024-02-23T06:36:17;12.32;;;2.40;;
33826;SDS011;20128;45.582;5.298;2024-02-23T06:38:43;5.63;;;2.38;;
33826;SDS011;20128;45.582;5.298;2024-02-23T06:41:10;20.05;;;5.63;;
33826;SDS011;20128;45.582;5.298;2024-02-23T06:43:36;26.20;;;5.35;;
33826;SDS011;20128;45.582;5.298;2024-02-23T06:46:09;32.45;;;8.98;;
33826;SDS011;20128;45.582;5.298;2024-02-23T06:48:35;86.80;;;22.48;;
33826;SDS011;20128;45.582;5.298;2024-02-23T06:51:02;8.85;;;3.90;;
33826;SDS011;20128;45.582;5.298;2024-02-23T06:53:28;12.18;;;2.67;;
33826;SDS011;20128;45.582;5.298;2024-02-23T06:55:54;20.45;;;5.22;;
33826;SDS011;20128;45.582;5.298;2024-02-23T06:58:20;11.98;;;2.72;;
33826;SDS011;20128;45.582;5.298;2024-02-23T07:00:46;7.10;;;3.15;;
33826;SDS011;20128;45.582;5.298;2024-02-23T07:03:12;11.88;;;4.22;;
33826;SDS011;20128;45.582;5.298;2024-02-23T07:05:39;16.77;;;4.80;;
33826;SDS011;20128;45.582;5.298;2024-02-23T07:08:07;8.45;;;3.03;;
33826;SDS011;20128;45.582;5.298;2024-02-23T07:10:33;13.50;;;6.03;;
33826;SDS011;20128;45.582;5.298;2024-02-23T07:12:58;76.18;;;29.77;;
33826;SDS011;20128;45.582;5.298;2024-02-23T07:15:24;67.35;;;34.63;;
33826;SDS011;20128;45.582;5.298;2024-02-23T07:17:51;65.38;;;33.70;;
33826;SDS011;20128;45.582;5.298;2024-02-23T07:20:17;13.57;;;4.88;;
33826;SDS011;20128;45.582;5.298;2024-02-23T07:22:46;12.77;;;3.40;;
33826;SDS011;20128;45.582;5.298;2024-02-23T07:25:12;14.13;;;3.72;;
33826;SDS011;20128;45.582;5.298;2024-02-23T07:27:41;16.48;;;3.97;;
33826;SDS011;20128;45.582;5.298;2024-02-23T07:30:07;9.73;;;3.50;;
33826;SDS011;20128;45.582;5.298;2024-02-23T07:32:33;10.13;;;3.63;;
33826;SDS011;20128;45.582;5.298;2024-02-23T07:34:58;10.57;;;3.20;;
33826;SDS011;20128;45.582;5.298;2024-02-23T07:37:25;14.57;;;3.35;;
33826;SDS011;20128;45.582;5.298;2024-02-23T07:39:52;12.77;;;3.50;;
33826;SDS011;20128;45.582;5.298;2024-02-23T07:42:17;15.23;;;4.03;;
33826;SDS011;20128;45.582;5.298;2024-02-23T07:44:44;10.68;;;4.50;;
33826;SDS011;20128;45.582;5.298;2024-02-23T07:47:10;8.68;;;2.67;;
33826;SDS011;20128;45.582;5.298;2024-02-23T07:49:36;9.95;;;3.42;;
33826;SDS011;20128;45.582;5.298;2024-02-23T07:52:02;13.85;;;4.85;;
33826;SDS011;20128;45.582;5.298;2024-02-23T07:54:28;18.48;;;4.45;;
33826;SDS011;20128;45.582;5.298;2024-02-23T07:56:54;18.83;;;8.48;;
33826;SDS011;20128;45.582;5.298;2024-02-23T07:59:19;10.52;;;5.68;;
33826;SDS011;20128;45.582;5.298;2024-02-23T08:01:45;14.20;;;2.63;;
33826;SDS011;20128;45.582;5.298;2024-02-23T08:04:11;11.15;;;3.45;;
33826;SDS011;20128;45.582;5.298;2024-02-23T08:06:38;11.45;;;2.78;;
33826;SDS011;20128;45.582;5.298;2024-02-23T08:09:04;13.02;;;3.17;;
33826;SDS011;20128;45.582;5.298;2024-02-23T08:11:30;10.70;;;3.70;;
33826;SDS011;20128;45.582;5.298;2024-02-23T08:13:55;15.63;;;3.42;;
33826;SDS011;20128;45.582;5.298;2024-02-23T08:16:21;10.45;;;3.13;;
33826;SDS011;20128;45.582;5.298;2024-02-23T08:18:46;8.45;;;2.10;;
33826;SDS011;20128;45.582;5.298;2024-02-23T08:21:12;12.80;;;2.70;;
33826;SDS011;20128;45.582;5.298;2024-02-23T08:23:38;9.68;;;2.83;;
33826;SDS011;20128;45.582;5.298;2024-02-23T08:26:03;13.60;;;3.35;;
33826;SDS011;20128;45.582;5.298;2024-02-23T08:28:29;12.38;;;3.35;;
33826;SDS011;20128;45.582;5.298;2024-02-23T08:30:55;10.40;;;3.30;;
33826;SDS011;20128;45.582;5.298;2024-02-23T08:33:20;12.90;;;3.60;;
33826;SDS011;20128;45.582;5.298;2024-02-23T08:35:46;12.30;;;3.58;;
33826;SDS011;20128;45.582;5.298;2024-02-23T08:38:13;14.38;;;3.20;;
33826;SDS011;20128;45.582;5.298;2024-02-23T08:40:39;12.93;;;3.15;;
33826;SDS011;20128;45.582;5.298;2024-02-23T08:43:05;11.55;;;2.70;;
33826;SDS011;20128;45.582;5.298;2024-02-23T08:45:30;11.90;;;2.70;;
33826;SDS011;20128;45.582;5.298;2024-02-23T08:47:56;5.55;;;2.00;;
33826;SDS011;20128;45.582;5.298;2024-02-23T08:50:22;7.70;;;2.78;;
33826;SDS011;20128;45.582;5.298;2024-02-23T08:52:47;8.05;;;2.28;;
33826;SDS011;20128;45.582;5.298;2024-02-23T08:55:13;12.02;;;2.85;;
33826;SDS011;20128;45.582;5.298;2024-02-23T08:57:38;7.88;;;2.92;;
33826;SDS011;20128;45.582;5.298;2024-02-23T09:00:04;12.75;;;3.13;;
33826;SDS011;20128;45.582;5.298;2024-02-23T09:02:31;4.65;;;2.00;;
33826;SDS011;20128;45.582;5.298;2024-02-23T09:05:00;13.45;;;2.30;;
33826;SDS011;20128;45.582;5.298;2024-02-23T09:07:26;13.52;;;2.33;;
33826;SDS011;20128;45.582;5.298;2024-02-23T09:09:52;11.30;;;2.78;;
33826;SDS011;20128;45.582;5.298;2024-02-23T09:12:18;15.20;;;3.00;;
33826;SDS011;20128;45.582;5.298;2024-02-23T09:14:44;9.15;;;2.45;;
33826;SDS011;20128;45.582;5.298;2024-02-23T09:17:10;7.75;;;2.53;;
33826;SDS011;20128;45.582;5.298;2024-02-23T09:19:36;11.40;;;2.17;;
33826;SDS011;20128;45.582;5.298;2024-02-23T09:22:02;18.10;;;2.72;;
33826;SDS011;20128;45.582;5.298;2024-02-23T09:24:28;10.73;;;2.20;;
33826;SDS011;20128;45.582;5.298;2024-02-23T09:26:54;14.45;;;2.50;;
33826;SDS011;20128;45.582;5.298;2024-02-23T09:29:19;11.90;;;2.40;;
33826;SDS011;20128;45.582;5.298;2024-02-23T09:31:46;5.82;;;2.13;;
33826;SDS011;20128;45.582;5.298;2024-02-23T09:34:12;12.05;;;1.80;;
33826;SDS011;20128;45.582;5.298;2024-02-23T09:36:38;8.75;;;1.95;;
33826;SDS011;20128;45.582;5.298;2024-02-23T09:39:04;7.13;;;1.50;;
33826;SDS011;20128;45.582;5.298;2024-02-23T09:41:30;10.52;;;2.20;;
33826;SDS011;20128;45.582;5.298;2024-02-23T09:43:59;12.27;;;1.98;;
33826;SDS011;20128;45.582;5.298;2024-02-23T09:46:26;8.50;;;1.67;;
33826;SDS011;20128;45.582;5.298;2024-02-23T09:48:52;9.02;;;1.52;;
33826;SDS011;20128;45.582;5.298;2024-02-23T09:51:20;8.82;;;1.23;;
33826;SDS011;20128;45.582;5.298;2024-02-23T09:53:48;4.70;;;1.00;;
33826;SDS011;20128;45.582;5.298;2024-02-23T09:56:15;4.60;;;0.85;;
33826;SDS011;20128;45.582;5.298;2024-02-23T09:58:42;10.15;;;1.77;;
33826;SDS011;20128;45.582;5.298;2024-02-23T10:01:12;5.65;;;1.20;;
33826;SDS011;20128;45.582;5.298;2024-02-23T10:03:40;5.32;;;1.33;;
33826;SDS011;20128;45.582;5.298;2024-02-23T10:06:07;8.20;;;1.70;;
33826;SDS011;20128;45.582;5.298;2024-02-23T10:08:33;6.25;;;1.25;;
33826;SDS011;20128;45.582;5.298;2024-02-23T10:11:00;4.53;;;1.45;;
33826;SDS011;20128;45.582;5.298;2024-02-23T10:13:26;5.07;;;0.98;;
33826;SDS011;20128;45.582;5.298;2024-02-23T10:15:52;5.78;;;0.90;;
33826;SDS011;20128;45.582;5.298;2024-02-23T10:18:18;4.10;;;0.80;;
33826;SDS011;20128;45.582;5.298;2024-02-23T10:20:45;4.95;;;0.98;;
33826;SDS011;20128;45.582;5.298;2024-02-23T10:23:11;3.30;;;0.73;;
33826;SDS011;20128;45.582;5.298;2024-02-23T10:25:37;4.10;;;0.98;;
33826;SDS011;20128;45.582;5.298;2024-02-23T10:28:03;7.32;;;1.38;;
33826;SDS011;20128;45.582;5.298;2024-02-23T10:30:30;3.50;;;1.05;;
33826;SDS011;20128;45.582;5.298;2024-02-23T10:32:56;3.30;;;0.98;;
33826;SDS011;20128;45.582;5.298;2024-02-23T10:35:24;4.88;;;1.30;;
33826;SDS011;20128;45.582;5.298;2024-02-23T10:37:50;5.15;;;1.05;;
33826;SDS011;20128;45.582;5.298;2024-02-23T10:40:18;3.25;;;0.73;;
33826;SDS011;20128;45.582;5.298;2024-02-23T10:42:45;3.58;;;0.68;;
33826;SDS011;20128;45.582;5.298;2024-02-23T10:45:14;4.53;;;0.85;;
33826;SDS011;20128;45.582;5.298;2024-02-23T10:47:41;4.20;;;0.60;;
33826;SDS011;20128;45.582;5.298;2024-02-23T10:50:08;4.28;;;1.05;;
33826;SDS011;20128;45.582;5.298;2024-02-23T10:52:35;5.40;;;0.98;;
33826;SDS011;20128;45.582;5.298;2024-02-23T10:55:08;5.50;;;1.70;;
33826;SDS011;20128;45.582;5.298;2024-02-23T10:57:37;4.65;;;1.10;;
33826;SDS011;20128;45.582;5.298;2024-02-23T11:00:04;3.00;;;0.60;;
33826;SDS011;20128;45.582;5.298;2024-02-23T11:02:46;6.25;;;1.15;;
33826;SDS011;20128;45.582;5.298;2024-02-23T11:05:16;4.50;;;1.10;;
33826;SDS011;20128;45.582;5.298;2024-02-23T11:07:45;4.78;;;0.80;;
33826;SDS011;20128;45.582;5.298;2024-02-23T11:10:14;4.30;;;1.05;;
33826;SDS011;20128;45.582;5.298;2024-02-23T11:12:40;4.97;;;0.80;;
33826;SDS011;20128;45.582;5.298;2024-02-23T11:15:06;4.43;;;0.95;;
33826;SDS011;20128;45.582;5.298;2024-02-23T11:17:32;3.75;;;0.90;;
33826;SDS011;20128;45.582;5.298;2024-02-23T11:20:03;7.93;;;0.70;;
33826;SDS011;20128;45.582;5.298;2024-02-23T11:22:31;5.32;;;0.82;;
33826;SDS011;20128;45.582;5.298;2024-02-23T11:25:05;3.45;;;1.23;;
33826;SDS011;20128;45.582;5.298;2024-02-23T11:27:33;3.72;;;0.85;;
33826;SDS011;20128;45.582;5.298;2024-02-23T11:30:01;4.25;;;0.63;;
33826;SDS011;20128;45.582;5.298;2024-02-23T11:32:36;3.38;;;1.13;;
33826;SDS011;20128;45.582;5.298;2024-02-23T11:35:07;8.10;;;1.15;;
33826;SDS011;20128;45.582;5.298;2024-02-23T11:37:55;3.83;;;0.60;;
33826;SDS011;20128;45.582;5.298;2024-02-23T11:40:30;3.55;;;0.57;;
33826;SDS011;20128;45.582;5.298;2024-02-23T11:42:56;7.50;;;1.27;;
33826;SDS011;20128;45.582;5.298;2024-02-23T11:45:27;3.28;;;0.73;;
33826;SDS011;20128;45.582;5.298;2024-02-23T11:47:55;5.97;;;0.95;;
33826;SDS011;20128;45.582;5.298;2024-02-23T11:50:21;3.20;;;0.85;;
33826;SDS011;20128;45.582;5.298;2024-02-23T11:52:47;2.42;;;0.73;;
33826;SDS011;20128;45.582;5.298;2024-02-23T11:55:13;1.15;;;0.40;;
33826;SDS011;20128;45.582;5.298;2024-02-23T11:57:49;4.43;;;0.60;;
33826;SDS011;20128;45.582;5.298;2024-02-23T12:00:15;7.63;;;0.85;;
33826;SDS011;20128;45.582;5.298;2024-02-23T12:02:41;2.10;;;0.73;;
33826;SDS011;20128;45.582;5.298;2024-02-23T12:05:09;4.65;;;0.90;;
33826;SDS011;20128;45.582;5.298;2024-02-23T12:07:34;6.25;;;0.93;;
33826;SDS011;20128;45.582;5.298;2024-02-23T12:10:00;4.18;;;0.68;;
33826;SDS011;20128;45.582;5.298;2024-02-23T12:12:26;2.28;;;0.85;;
33826;SDS011;20128;45.582;5.298;2024-02-23T12:14:52;9.38;;;1.17;;
33826;SDS011;20128;45.582;5.298;2024-02-23T12:17:18;4.55;;;0.93;;
33826;SDS011;20128;45.582;5.298;2024-02-23T12:19:44;3.83;;;0.70;;
33826;SDS011;20128;45.582;5.298;2024-02-23T12:22:10;6.28;;;1.20;;
33826;SDS011;20128;45.582;5.298;2024-02-23T12:24:40;4.28;;;1.00;;
33826;SDS011;20128;45.582;5.298;2024-02-23T12:27:06;3.40;;;0.80;;
33826;SDS011;20128;45.582;5.298;2024-02-23T12:29:32;4.22;;;0.75;;
33826;SDS011;20128;45.582;5.298;2024-02-23T12:32:07;6.20;;;1.00;;
33826;SDS011;20128;45.582;5.298;2024-02-23T12:34:32;5.82;;;1.55;;
33826;SDS011;20128;45.582;5.298;2024-02-23T12:36:59;6.70;;;0.77;;
33826;SDS011;20128;45.582;5.298;2024-02-23T12:39:28;4.25;;;0.65;;
33826;SDS011;20128;45.582;5.298;2024-02-23T12:41:53;5.30;;;1.00;;
33826;SDS011;20128;45.582;5.298;2024-02-23T12:44:21;4.47;;;0.75;;
33826;SDS011;20128;45.582;5.298;2024-02-23T12:46:47;3.22;;;0.80;;
33826;SDS011;20128;45.582;5.298;2024-02-23T12:49:13;8.23;;;1.20;;
33826;SDS011;20128;45.582;5.298;2024-02-23T12:51:38;2.60;;;0.73;;
33826;SDS011;20128;45.582;5.298;2024-02-23T12:54:05;3.75;;;0.60;;
33826;SDS011;20128;45.582;5.298;2024-02-23T12:56:30;4.68;;;0.70;;
33826;SDS011;20128;45.582;5.298;2024-02-23T12:58:56;3.25;;;0.75;;
33826;SDS011;20128;45.582;5.298;2024-02-23T13:01:22;5.70;;;0.82;;
33826;SDS011;20128;45.582;5.298;2024-02-23T13:03:48;6.40;;;0.90;;
33826;SDS011;20128;45.582;5.298;2024-02-23T13:06:13;2.70;;;0.80;;
33826;SDS011;20128;45.582;5.298;2024-02-23T13:08:40;4.05;;;0.63;;
33826;SDS011;20128;45.582;5.298;2024-02-23T13:11:07;2.65;;;0.70;;
33826;SDS011;20128;45.582;5.298;2024-02-23T13:13:33;5.65;;;1.10;;
33826;SDS011;20128;45.582;5.298;2024-02-23T13:16:00;3.90;;;1.00;;
33826;SDS011;20128;45.582;5.298;2024-02-23T13:18:25;3.90;;;1.23;;
33826;SDS011;20128;45.582;5.298;2024-02-23T13:20:51;6.30;;;1.40;;
33826;SDS011;20128;45.582;5.298;2024-02-23T13:23:17;4.43;;;0.70;;
33826;SDS011;20128;45.582;5.298;2024-02-23T13:25:43;3.67;;;0.82;;
33826;SDS011;20128;45.582;5.298;2024-02-23T13:28:09;5.18;;;0.80;;
33826;SDS011;20128;45.582;5.298;2024-02-23T13:30:35;4.47;;;0.65;;
33826;SDS011;20128;45.582;5.298;2024-02-23T13:33:02;6.38;;;1.20;;
33826;SDS011;20128;45.582;5.298;2024-02-23T13:35:28;1.05;;;0.50;;
33826;SDS011;20128;45.582;5.298;2024-02-23T13:37:54;1.55;;;0.65;;
33826;SDS011;20128;45.582;5.298;2024-02-23T13:40:20;2.95;;;0.88;;
33826;SDS011;20128;45.582;5.298;2024-02-23T13:42:47;2.70;;;0.75;;
33826;SDS011;20128;45.582;5.298;2024-02-23T13:45:17;6.93;;;0.98;;
33826;SDS011;20128;45.582;5.298;2024-02-23T13:47:55;5.68;;;0.80;;
33826;SDS011;20128;45.582;5.298;2024-02-23T13:50:26;3.60;;;0.65;;
33826;SDS011;20128;45.582;5.298;2024-02-23T13:52:52;3.40;;;0.60;;
33826;SDS011;20128;45.582;5.298;2024-02-23T13:55:18;7.60;;;0.77;;
33826;SDS011;20128;45.582;5.298;2024-02-23T13:57:47;5.10;;;1.00;;
33826;SDS011;20128;45.582;5.298;2024-02-23T14:00:14;3.00;;;1.10;;
33826;SDS011;20128;45.582;5.298;2024-02-23T14:02:40;6.32;;;1.08;;
33826;SDS011;20128;45.582;5.298;2024-02-23T14:05:06;1.38;;;0.70;;
33826;SDS011;20128;45.582;5.298;2024-02-23T14:07:32;5.25;;;1.25;;
33826;SDS011;20128;45.582;5.298;2024-02-23T14:09:58;3.67;;;0.57;;
33826;SDS011;20128;45.582;5.298;2024-02-23T14:12:24;5.43;;;0.90;;
33826;SDS011;20128;45.582;5.298;2024-02-23T14:14:50;1.60;;;0.63;;
33826;SDS011;20128;45.582;5.298;2024-02-23T14:17:16;4.93;;;1.00;;
33826;SDS011;20128;45.582;5.298;2024-02-23T14:19:42;4.90;;;1.08;;
33826;SDS011;20128;45.582;5.298;2024-02-23T14:22:07;4.45;;;0.77;;
33826;SDS011;20128;45.582;5.298;2024-02-23T14:24:33;2.00;;;0.70;;
33826;SDS011;20128;45.582;5.298;2024-02-23T14:26:59;6.90;;;1.00;;
33826;SDS011;20128;45.582;5.298;2024-02-23T14:29:24;3.33;;;0.85;;
33826;SDS011;20128;45.582;5.298;2024-02-23T14:31:50;4.65;;;0.63;;
33826;SDS011;20128;45.582;5.298;2024-02-23T14:34:17;3.30;;;0.95;;
33826;SDS011;20128;45.582;5.298;2024-02-23T14:36:42;6.63;;;1.10;;
33826;SDS011;20128;45.582;5.298;2024-02-23T14:39:09;3.85;;;1.02;;